Terminal Aerodrome Forecast
Issued by NWS Denver/Boulder, CO

Home | Current Version | Previous Version | Text Only | Print | Product List | Glossary On
Versions: 1 2 3 4 5 6 7 8 9 10 11 12 13 14 15 16 17 18 19 20 21 22 23 24 25 26 27 28 29 30 31 32 33 34 35 36 37 38 39 40 41 42 43 44 45 46 47 48 49 50
000
FTUS45 KBOU 301507 AAA
TAFDEN
TAF AMD
KDEN 301507Z 3015/0118 23010KT P6SM FEW090
     FM301700 26011KT P6SM FEW120 SCT200
     FM302100 30012KT P6SM SCT120 BKN160
     FM010100 27008KT P6SM SCT080 BKN120
     FM010600 21008KT P6SM SCT120 BKN180
     FM011600 15007KT P6SM SCT090 BKN140=

USA.gov is the U.S. government's official web portal to all federal, state and local government web resources and services.